createdAt,value
2019-05-10T00:00:15.331Z,5.80
2019-05-10T00:03:01.603Z,6.85
2019-05-10T00:05:47.935Z,7.33
2019-05-10T00:08:34.338Z,6.65
2019-05-10T00:11:08.239Z,7.42
2019-05-10T00:13:41.077Z,7.08
2019-05-10T00:16:09.305Z,7.22
2019-05-10T00:18:37.529Z,7.97
2019-05-10T00:21:05.759Z,7.40
2019-05-10T00:23:33.980Z,8.05
2019-05-10T00:26:02.207Z,7.67
2019-05-10T00:28:30.430Z,6.55
2019-05-10T00:30:59.202Z,7.92
2019-05-10T00:33:28.239Z,6.85
2019-05-10T00:35:58.133Z,8.03
2019-05-10T00:38:26.355Z,7.78
2019-05-10T00:40:54.588Z,8.13
2019-05-10T00:43:23.037Z,8.03
2019-05-10T00:45:51.300Z,7.92
2019-05-10T00:48:19.601Z,7.65
2019-05-10T00:50:47.840Z,7.58
2019-05-10T00:53:16.156Z,8.40
2019-05-10T00:55:44.448Z,8.90
2019-05-10T00:58:12.712Z,8.95
2019-05-10T01:00:40.942Z,8.43
2019-05-10T01:03:09.191Z,8.10
2019-05-10T01:05:39.307Z,8.03
2019-05-10T01:08:07.555Z,9.28
2019-05-10T01:10:35.786Z,8.20
2019-05-10T01:13:04.108Z,8.45
2019-05-10T01:15:32.341Z,8.83
2019-05-10T01:18:00.567Z,8.65
2019-05-10T01:20:28.793Z,8.78
2019-05-10T01:22:57.029Z,8.53
2019-05-10T01:25:34.624Z,8.68
2019-05-10T01:27:55.211Z,8.75
2019-05-10T01:30:23.478Z,8.63
2019-05-10T01:32:52.060Z,8.60
2019-05-10T01:35:20.323Z,8.55
2019-05-10T01:37:48.556Z,9.10
2019-05-10T01:40:16.789Z,9.25
2019-05-10T01:42:45.013Z,9.53
2019-05-10T01:45:13.261Z,8.70
2019-05-10T01:47:41.651Z,9.45
2019-05-10T01:50:11.482Z,9.58
2019-05-10T01:52:40.640Z,9.80
2019-05-10T01:55:08.964Z,9.60
2019-05-10T01:57:37.197Z,10.50
2019-05-10T02:00:08.684Z,10.63
2019-05-10T02:02:36.952Z,10.25
2019-05-10T02:05:05.355Z,11.30
2019-05-10T02:07:33.750Z,11.30
2019-05-10T02:10:02.052Z,11.25
2019-05-10T02:12:30.407Z,12.40
2019-05-10T02:14:58.664Z,12.53
2019-05-10T02:17:26.910Z,10.70
2019-05-10T02:19:55.156Z,11.60
2019-05-10T02:22:23.387Z,10.80
2019-05-10T02:24:51.650Z,13.20
2019-05-10T02:27:19.913Z,11.95
2019-05-10T02:29:48.137Z,10.93
2019-05-10T02:32:17.238Z,11.03
2019-05-10T02:34:45.469Z,11.63
2019-05-10T02:37:13.756Z,11.97
2019-05-10T02:39:42.029Z,11.03
2019-05-10T02:42:10.278Z,11.70
2019-05-10T02:44:38.552Z,11.73
2019-05-10T02:47:06.793Z,11.78
2019-05-10T02:49:35.117Z,11.88
2019-05-10T02:52:03.347Z,11.95
2019-05-10T02:54:32.424Z,11.80
2019-05-10T02:57:00.689Z,11.43
2019-05-10T02:59:28.895Z,12.55
2019-05-10T03:01:57.172Z,11.03
2019-05-10T03:04:25.718Z,10.15
2019-05-10T03:06:57.236Z,11.20
2019-05-10T03:09:28.184Z,12.55
2019-05-10T03:11:56.433Z,12.23
2019-05-10T03:14:24.781Z,12.05
2019-05-10T03:16:53.815Z,12.90
2019-05-10T03:19:22.048Z,13.45
2019-05-10T03:21:53.515Z,12.40
2019-05-10T03:24:27.058Z,12.00
2019-05-10T03:26:52.115Z,11.28
2019-05-10T03:29:20.378Z,13.00
2019-05-10T03:31:48.997Z,13.88
2019-05-10T03:34:17.231Z,12.63
2019-05-10T03:36:45.476Z,13.13
2019-05-10T03:39:14.896Z,13.32
2019-05-10T03:41:43.137Z,14.73
2019-05-10T03:44:11.496Z,16.23
2019-05-10T03:46:39.781Z,15.28
2019-05-10T03:49:08.129Z,14.68
2019-05-10T03:51:36.373Z,14.95
2019-05-10T03:54:05.059Z,14.78
2019-05-10T03:56:33.629Z,15.48
2019-05-10T03:59:01.862Z,16.70
2019-05-10T04:01:30.128Z,17.82
2019-05-10T04:03:58.381Z,17.42
2019-05-10T04:06:26.635Z,15.98
2019-05-10T04:08:54.989Z,17.35
2019-05-10T04:11:23.299Z,18.62
2019-05-10T04:13:52.154Z,18.23
2019-05-10T04:16:21.484Z,20.75
2019-05-10T04:18:49.953Z,23.92
2019-05-10T04:21:18.330Z,22.42
2019-05-10T04:23:47.014Z,22.98
2019-05-10T04:26:15.411Z,21.65
2019-05-10T04:28:43.731Z,20.60
2019-05-10T04:31:11.990Z,23.45
2019-05-10T04:33:40.223Z,22.13
2019-05-10T04:36:12.409Z,22.20
2019-05-10T04:38:38.603Z,23.12
2019-05-10T04:41:06.889Z,23.27
2019-05-10T04:43:35.580Z,22.90
2019-05-10T04:46:04.256Z,22.77
2019-05-10T04:48:32.513Z,24.37
2019-05-10T04:51:00.760Z,22.25
2019-05-10T04:53:29.076Z,23.90
2019-05-10T04:55:58.127Z,23.85
2019-05-10T04:58:26.379Z,24.15
2019-05-10T05:00:55.613Z,25.50
2019-05-10T05:03:23.835Z,25.23
2019-05-10T05:05:52.076Z,24.12
2019-05-10T05:08:20.296Z,27.75
2019-05-10T05:10:48.676Z,25.97
2019-05-10T05:13:16.932Z,26.80
2019-05-10T05:15:45.515Z,28.70
2019-05-10T05:18:13.848Z,27.58
2019-05-10T05:20:42.163Z,27.50
2019-05-10T05:23:10.387Z,27.20
2019-05-10T05:25:40.256Z,26.87
2019-05-10T05:28:08.720Z,26.23
2019-05-10T05:30:39.023Z,28.15
2019-05-10T05:33:08.846Z,26.97
2019-05-10T05:35:37.141Z,26.00
2019-05-10T05:38:05.598Z,26.17
2019-05-10T05:40:34.926Z,24.37
2019-05-10T05:43:08.095Z,26.93
2019-05-10T05:45:34.553Z,23.18
2019-05-10T05:48:03.547Z,26.33
2019-05-10T05:50:31.871Z,27.45
2019-05-10T05:53:00.177Z,24.75
2019-05-10T05:55:30.771Z,24.45
2019-05-10T05:57:59.259Z,25.75
2019-05-10T06:00:28.492Z,24.23
2019-05-10T06:02:56.757Z,26.87
2019-05-10T06:05:34.087Z,24.50
2019-05-10T06:07:55.137Z,24.23
2019-05-10T06:10:23.433Z,27.48
2019-05-10T06:12:53.003Z,28.38
2019-05-10T06:15:22.998Z,22.90
2019-05-10T06:17:57.105Z,26.15
2019-05-10T06:20:21.678Z,35.68
2019-05-10T06:23:06.033Z,33.08
2019-05-10T06:25:38.113Z,27.15
2019-05-10T06:27:49.843Z,28.67
2019-05-10T06:30:18.832Z,30.08
2019-05-10T06:32:53.358Z,30.10
2019-05-10T06:35:19.565Z,29.95
2019-05-10T06:37:47.433Z,28.42
2019-05-10T06:40:15.729Z,29.45
2019-05-10T06:42:44.127Z,30.30
2019-05-10T06:45:15.756Z,30.30
2019-05-10T06:47:47.534Z,29.12
2019-05-10T06:50:12.549Z,32.67
2019-05-10T06:52:40.791Z,33.33
2019-05-10T06:55:09.015Z,32.33
2019-05-10T06:57:37.383Z,30.37
2019-05-10T07:00:08.509Z,35.08
2019-05-10T07:02:36.786Z,33.13
2019-05-10T07:05:05.028Z,34.43
2019-05-10T07:07:43.698Z,32.48
2019-05-10T07:10:13.065Z,30.60
2019-05-10T07:12:33.752Z,29.05
2019-05-10T07:15:03.335Z,21.20
2019-05-10T07:17:40.734Z,19.05
2019-05-10T07:20:03.444Z,18.77
2019-05-10T07:22:51.207Z,20.27
2019-05-10T07:25:19.430Z,21.57
2019-05-10T07:27:50.313Z,17.87
2019-05-10T07:30:32.531Z,18.87
2019-05-10T07:35:30.938Z,12.90
2019-05-10T07:38:00.136Z,11.05
2019-05-10T07:40:28.403Z,10.88
2019-05-10T07:42:56.700Z,10.05
2019-05-10T07:45:25.634Z,9.28
2019-05-10T07:47:54.915Z,7.85
2019-05-10T07:50:23.303Z,5.50
2019-05-10T07:52:51.616Z,5.87
2019-05-10T07:55:27.454Z,5.67
2019-05-10T07:57:49.901Z,6.28
2019-05-10T08:00:18.151Z,6.78
2019-05-10T08:02:55.009Z,7.75
2019-05-10T08:05:18.300Z,8.00
2019-05-10T08:07:46.465Z,8.43
2019-05-10T08:10:14.787Z,10.63
2019-05-10T08:12:45.669Z,10.13
2019-05-10T08:15:13.095Z,11.33
2019-05-10T08:17:45.607Z,11.80
2019-05-10T08:20:25.625Z,11.68
2019-05-10T08:22:45.671Z,11.00
2019-05-10T08:25:15.253Z,12.40
2019-05-10T08:27:50.045Z,10.72
2019-05-10T08:30:26.317Z,10.05
2019-05-10T08:32:42.577Z,9.78
2019-05-10T08:35:16.525Z,12.23
2019-05-10T08:37:43.233Z,10.13
2019-05-10T08:40:12.799Z,12.50
2019-05-10T08:42:48.216Z,15.20
2019-05-10T08:45:12.548Z,14.55
2019-05-10T08:47:42.637Z,14.60
2019-05-10T08:50:26.396Z,14.23
2019-05-10T08:52:42.306Z,11.83
2019-05-10T08:55:12.381Z,14.10
2019-05-10T08:57:44.478Z,13.75
2019-05-10T09:00:13.057Z,13.45
2019-05-10T09:02:42.682Z,13.62
2019-05-10T09:05:12.466Z,14.00
2019-05-10T09:07:42.937Z,13.72
2019-05-10T09:10:12.820Z,14.43
2019-05-10T09:12:50.273Z,14.87
2019-05-10T09:15:13.309Z,15.60
2019-05-10T09:17:42.778Z,14.15
2019-05-10T09:20:14.023Z,13.48
2019-05-10T09:22:42.443Z,14.40
2019-05-10T09:25:12.885Z,13.90
2019-05-10T09:27:43.218Z,13.22
2019-05-10T09:30:16.171Z,12.63
2019-05-10T09:32:43.165Z,13.78
2019-05-10T09:35:12.699Z,14.35
2019-05-10T09:37:42.050Z,12.75
2019-05-10T09:40:13.085Z,14.15
2019-05-10T09:42:43.378Z,10.85
2019-05-10T09:45:12.653Z,11.75
2019-05-10T09:47:43.524Z,10.13
2019-05-10T09:50:12.687Z,9.30
2019-05-10T09:52:41.224Z,9.53
2019-05-10T09:55:14.518Z,8.78
2019-05-10T09:57:40.263Z,8.48
2019-05-10T10:00:10.012Z,8.50
2019-05-10T10:02:40.670Z,7.62
2019-05-10T10:05:08.987Z,6.72
2019-05-10T10:07:37.461Z,6.05
2019-05-10T10:10:07.330Z,4.85
2019-05-10T10:12:37.298Z,3.65
2019-05-10T10:15:09.318Z,4.30
2019-05-10T10:17:40.323Z,4.35
2019-05-10T10:20:08.151Z,3.75
2019-05-10T10:22:38.161Z,3.10
2019-05-10T10:25:07.383Z,4.17
2019-05-10T10:27:38.751Z,4.12
2019-05-10T10:30:12.717Z,4.22
2019-05-10T10:32:37.565Z,4.60
2019-05-10T10:35:07.853Z,3.42
2019-05-10T10:37:37.957Z,4.75
2019-05-10T10:40:08.761Z,4.45
2019-05-10T10:42:38.078Z,5.20
2019-05-10T10:45:07.723Z,4.05
2019-05-10T10:47:38.153Z,4.10
2019-05-10T10:50:09.098Z,5.00
2019-05-10T10:52:37.775Z,4.55
2019-05-10T10:55:11.028Z,4.08
2019-05-10T10:57:37.478Z,4.45
2019-05-10T11:00:09.674Z,3.65
2019-05-10T11:02:41.348Z,3.15
2019-05-10T11:05:08.646Z,2.90
2019-05-10T11:07:41.118Z,2.60
2019-05-10T11:10:17.921Z,2.58
2019-05-10T11:12:37.885Z,2.52
2019-05-10T11:15:06.117Z,3.35
2019-05-10T11:17:34.453Z,2.60
2019-05-10T11:20:08.446Z,2.60
2019-05-10T11:22:35.500Z,2.83
2019-05-10T11:25:09.486Z,2.42
2019-05-10T11:27:35.008Z,3.70
2019-05-10T11:30:04.131Z,2.50
2019-05-10T11:32:32.336Z,2.87
2019-05-10T11:35:00.733Z,2.35
2019-05-10T11:37:32.834Z,2.70
2019-05-10T11:40:01.776Z,2.72
2019-05-10T11:42:31.744Z,2.58
2019-05-10T11:45:00.819Z,2.52
2019-05-10T11:47:31.251Z,2.87
2019-05-10T11:50:06.111Z,2.25
2019-05-10T11:52:34.620Z,2.40
2019-05-10T11:55:01.211Z,2.50
2019-05-10T11:57:32.895Z,1.98
2019-05-10T11:59:59.641Z,2.50
2019-05-10T12:02:38.538Z,2.87
2019-05-10T12:07:35.183Z,2.65
2019-05-10T12:10:08.425Z,2.00
2019-05-10T12:12:45.018Z,2.10
2019-05-10T12:14:58.004Z,2.25
2019-05-10T12:17:26.258Z,2.17
2019-05-10T12:19:56.338Z,1.72
2019-05-10T12:25:20.777Z,2.02
2019-05-10T12:25:59.929Z,2.30
2019-05-10T12:26:27.898Z,2.45
2019-05-10T12:27:30.035Z,3.00
2019-05-10T12:30:02.610Z,2.22
2019-05-10T12:32:32.060Z,2.80
2019-05-10T12:34:56.843Z,2.83
2019-05-10T12:37:25.188Z,2.87
2019-05-10T12:39:53.420Z,2.42
2019-05-10T12:42:21.919Z,2.90
2019-05-10T12:44:51.640Z,2.95
2019-05-10T12:47:21.451Z,2.80
2019-05-10T12:49:53.905Z,2.20
2019-05-10T12:52:22.125Z,2.55
2019-05-10T12:54:49.824Z,3.08
2019-05-10T12:57:18.052Z,2.35
2019-05-10T12:59:46.265Z,2.77
2019-05-10T13:02:14.575Z,2.92
2019-05-10T13:04:47.099Z,3.42
2019-05-10T13:07:13.025Z,3.42
2019-05-10T13:09:41.355Z,2.85
2019-05-10T13:12:09.730Z,3.50
2019-05-10T13:14:40.257Z,3.37
2019-05-10T13:17:09.929Z,2.80
2019-05-10T13:19:37.900Z,3.25
2019-05-10T13:22:07.445Z,2.80
2019-05-10T13:24:36.112Z,3.00
2019-05-10T13:27:04.364Z,2.65
2019-05-10T13:29:33.537Z,2.12
2019-05-10T13:32:01.783Z,2.60
2019-05-10T13:34:30.043Z,2.70
2019-05-10T13:36:58.288Z,2.65
2019-05-10T13:39:27.700Z,2.42
2019-05-10T13:41:57.236Z,2.50
2019-05-10T13:44:26.178Z,2.12
2019-05-10T13:46:54.405Z,2.47
2019-05-10T13:49:22.640Z,2.33
2019-05-10T13:51:51.816Z,1.87
2019-05-10T13:54:20.046Z,1.80
2019-05-10T13:56:52.422Z,2.20
2019-05-10T13:59:18.231Z,2.47
2019-05-10T14:01:49.528Z,2.17
2019-05-10T14:04:16.798Z,1.90
2019-05-10T14:06:45.196Z,2.45
2019-05-10T14:09:13.420Z,1.87
2019-05-10T14:11:46.909Z,2.67
2019-05-10T14:14:19.797Z,1.98
2019-05-10T14:16:44.446Z,2.15
2019-05-10T14:19:15.836Z,2.02
2019-05-10T14:21:43.588Z,1.80
2019-05-10T14:24:15.340Z,2.05
2019-05-10T14:26:41.927Z,2.72
2019-05-10T14:29:11.235Z,2.27
2019-05-10T14:31:40.481Z,2.25
2019-05-10T14:34:16.076Z,2.30
2019-05-10T14:36:40.826Z,2.10
2019-05-10T14:39:08.606Z,1.90
2019-05-10T14:41:39.857Z,2.37
2019-05-10T14:44:06.811Z,2.45
2019-05-10T14:46:35.023Z,2.40
2019-05-10T14:49:09.618Z,2.15
2019-05-10T14:51:49.455Z,2.40
2019-05-10T14:54:06.814Z,2.92
2019-05-10T14:56:33.422Z,2.45
2019-05-10T14:59:03.166Z,2.80
2019-05-10T15:01:36.823Z,2.20
2019-05-10T15:04:01.457Z,2.70
2019-05-10T15:06:30.625Z,2.50
2019-05-10T15:08:59.630Z,2.52
2019-05-10T15:11:31.633Z,2.70
2019-05-10T15:13:57.811Z,2.58
2019-05-10T15:16:30.374Z,2.42
2019-05-10T15:18:57.008Z,2.65
2019-05-10T15:21:25.531Z,2.15
2019-05-10T15:23:55.303Z,2.72
2019-05-10T15:26:23.843Z,2.47
2019-05-10T15:28:52.149Z,2.92
2019-05-10T15:31:23.679Z,3.58
2019-05-10T15:33:50.320Z,2.30
2019-05-10T15:36:23.758Z,2.33
2019-05-10T15:38:51.665Z,2.27
2019-05-10T15:41:22.393Z,3.10
2019-05-10T15:43:53.358Z,2.55
2019-05-10T15:46:18.891Z,2.80
2019-05-10T15:48:48.050Z,2.83
2019-05-10T15:51:16.945Z,2.62
2019-05-10T15:53:46.255Z,2.22
2019-05-10T15:56:14.502Z,2.83
2019-05-10T15:58:42.944Z,2.10
2019-05-10T16:01:14.137Z,3.17
2019-05-10T16:03:41.392Z,3.02
2019-05-10T16:06:09.615Z,2.05
2019-05-10T16:08:38.939Z,2.52
2019-05-10T16:11:17.537Z,2.30
2019-05-10T16:13:37.111Z,2.70
2019-05-10T16:16:05.367Z,2.98
2019-05-10T16:18:39.881Z,3.08
2019-05-10T16:21:03.589Z,3.20
2019-05-10T16:23:31.823Z,2.92
2019-05-10T16:29:39.706Z,3.17
2019-05-10T16:32:04.215Z,3.50
2019-05-10T16:34:34.177Z,2.98
2019-05-10T16:37:02.648Z,3.10
2019-05-10T16:39:48.875Z,3.50
2019-05-10T16:42:18.341Z,2.55
2019-05-10T16:44:46.712Z,4.12
2019-05-10T16:47:14.958Z,3.33
2019-05-10T16:49:47.839Z,3.67
2019-05-10T16:52:13.171Z,4.42
2019-05-10T16:54:41.386Z,4.08
2019-05-10T16:57:09.635Z,3.00
2019-05-10T16:59:37.923Z,3.50
2019-05-10T17:02:06.640Z,3.70
2019-05-10T17:04:37.528Z,3.80
2019-05-10T17:07:05.155Z,4.72
2019-05-10T17:09:33.458Z,3.40
2019-05-10T17:12:01.711Z,3.25
2019-05-10T17:14:29.919Z,3.45
2019-05-10T17:16:59.795Z,3.35
2019-05-10T17:19:33.857Z,3.62
2019-05-10T17:21:58.070Z,3.83
2019-05-10T17:24:26.372Z,3.27
2019-05-10T17:26:54.615Z,3.25
2019-05-10T17:29:23.125Z,2.98
2019-05-10T17:31:51.443Z,3.58
2019-05-10T17:34:27.540Z,3.60
2019-05-10T17:36:57.079Z,4.15
2019-05-10T17:39:19.916Z,4.33
2019-05-10T17:41:48.157Z,3.27
2019-05-10T17:44:23.140Z,3.20
2019-05-10T17:46:50.223Z,3.35
2019-05-10T17:49:18.827Z,3.80
2019-05-10T17:51:47.049Z,3.65
2019-05-10T17:54:16.537Z,3.22
2019-05-10T17:56:44.805Z,3.65
2019-05-10T17:59:14.002Z,3.20
2019-05-10T18:01:42.285Z,3.30
2019-05-10T18:04:10.551Z,3.22
2019-05-10T18:06:38.924Z,3.27
2019-05-10T18:09:07.199Z,3.60
2019-05-10T18:11:36.781Z,3.47
2019-05-10T18:14:05.550Z,4.03
2019-05-10T18:16:33.779Z,3.80
2019-05-10T18:19:02.221Z,3.72
2019-05-10T18:21:30.459Z,3.60
2019-05-10T18:23:59.811Z,3.27
2019-05-10T18:26:33.975Z,3.45
2019-05-10T18:28:59.085Z,3.33
2019-05-10T18:31:27.339Z,3.70
2019-05-10T18:33:56.005Z,3.75
2019-05-10T18:36:40.996Z,4.15
2019-05-10T18:38:54.589Z,3.92
2019-05-10T18:41:22.882Z,3.83
2019-05-10T18:43:51.114Z,3.47
2019-05-10T18:46:19.369Z,4.03
2019-05-10T18:48:47.729Z,3.70
2019-05-10T18:51:17.894Z,4.12
2019-05-10T18:53:46.400Z,3.55
2019-05-10T18:56:14.651Z,3.35
2019-05-10T18:58:42.948Z,3.62
2019-05-10T19:01:11.181Z,3.70
2019-05-10T19:03:39.422Z,4.10
2019-05-10T19:06:10.955Z,4.00
2019-05-10T19:08:37.739Z,4.83
2019-05-10T19:11:06.657Z,4.70
2019-05-10T19:13:46.736Z,4.58
2019-05-10T19:16:05.279Z,4.95
2019-05-10T19:18:33.561Z,5.22
2019-05-10T19:21:02.015Z,4.20
2019-05-10T19:23:30.230Z,5.45
2019-05-10T19:25:58.454Z,4.50
2019-05-10T19:28:28.370Z,4.08
2019-05-10T19:30:58.663Z,4.28
2019-05-10T19:33:29.893Z,4.47
2019-05-10T19:35:56.904Z,4.00
2019-05-10T19:38:25.188Z,3.87
2019-05-10T19:40:53.531Z,4.30
2019-05-10T19:43:23.818Z,4.22
2019-05-10T19:45:57.491Z,3.62
2019-05-10T19:48:21.995Z,4.42
2019-05-10T19:50:50.214Z,4.55
2019-05-10T19:53:18.495Z,4.85
2019-05-10T19:55:51.323Z,4.20
2019-05-10T19:58:16.686Z,4.35
2019-05-10T20:00:45.012Z,4.22
2019-05-10T20:03:13.419Z,3.95
2019-05-10T20:05:41.668Z,4.65
2019-05-10T20:08:10.052Z,3.98
2019-05-10T20:10:38.363Z,4.28
2019-05-10T20:13:06.607Z,4.95
2019-05-10T20:15:35.043Z,4.22
2019-05-10T20:18:03.355Z,4.62
2019-05-10T20:20:32.244Z,5.22
2019-05-10T20:23:00.692Z,4.20
2019-05-10T20:25:28.987Z,5.08
2019-05-10T20:27:57.256Z,4.83
2019-05-10T20:30:25.521Z,4.72
2019-05-10T20:32:53.757Z,4.53
2019-05-10T20:35:22.004Z,5.87
2019-05-10T20:38:01.263Z,5.90
2019-05-10T20:40:20.267Z,4.78
2019-05-10T20:42:48.528Z,4.97
2019-05-10T20:45:16.742Z,4.45
2019-05-10T20:47:45.081Z,4.90
2019-05-10T20:50:13.356Z,4.78
2019-05-10T20:52:41.601Z,4.42
2019-05-10T20:55:10.025Z,4.67
2019-05-10T20:57:38.244Z,4.58
2019-05-10T21:00:06.870Z,5.15
2019-05-10T21:02:35.169Z,5.03
2019-05-10T21:05:05.144Z,5.47
2019-05-10T21:07:33.434Z,6.05
2019-05-10T21:10:01.673Z,6.00
2019-05-10T21:12:30.004Z,5.58
2019-05-10T21:14:58.237Z,5.62
2019-05-10T21:17:26.475Z,5.55
2019-05-10T21:19:54.706Z,4.83
2019-05-10T21:22:22.927Z,5.92
2019-05-10T21:24:51.150Z,5.60
2019-05-10T21:27:19.419Z,6.45
2019-05-10T21:29:47.810Z,5.53
2019-05-10T21:32:16.039Z,5.65
2019-05-10T21:34:44.254Z,6.10
2019-05-10T21:37:12.486Z,5.37
2019-05-10T21:39:40.725Z,5.58
2019-05-10T21:42:11.474Z,6.55
2019-05-10T21:44:39.714Z,6.65
2019-05-10T21:47:07.924Z,6.37
2019-05-10T21:49:36.151Z,6.08
2019-05-10T21:52:04.391Z,5.65
2019-05-10T21:54:32.675Z,6.47
2019-05-10T21:57:00.940Z,6.70
2019-05-10T21:59:29.210Z,7.22
2019-05-10T22:01:59.080Z,6.58
2019-05-10T22:04:27.356Z,6.40
2019-05-10T22:06:55.567Z,6.40
2019-05-10T22:09:23.919Z,6.30
2019-05-10T22:11:52.367Z,6.67
2019-05-10T22:14:20.583Z,6.15
2019-05-10T22:16:49.066Z,7.00
2019-05-10T22:19:17.299Z,7.22
2019-05-10T22:21:45.535Z,7.20
2019-05-10T22:24:13.884Z,7.15
2019-05-10T22:26:42.110Z,7.78
2019-05-10T22:29:10.317Z,7.50
2019-05-10T22:31:38.543Z,7.12
2019-05-10T22:34:06.838Z,7.65
2019-05-10T22:36:35.062Z,7.60
2019-05-10T22:39:07.513Z,7.42
2019-05-10T22:41:34.083Z,8.15
2019-05-10T22:44:03.207Z,7.65
2019-05-10T22:46:31.424Z,7.62
2019-05-10T22:48:59.651Z,8.03
2019-05-10T22:51:27.871Z,7.95
2019-05-10T22:54:00.093Z,8.38
2019-05-10T22:56:26.149Z,8.40
2019-05-10T22:58:54.345Z,8.93
2019-05-10T23:01:22.583Z,7.67
2019-05-10T23:03:50.807Z,9.08
2019-05-10T23:06:19.235Z,8.10
2019-05-10T23:08:47.556Z,7.85
2019-05-10T23:11:16.089Z,8.15
2019-05-10T23:13:44.331Z,8.30
2019-05-10T23:16:12.560Z,8.05
2019-05-10T23:18:40.806Z,7.55
2019-05-10T23:21:09.104Z,8.53
2019-05-10T23:23:37.315Z,8.50
2019-05-10T23:26:05.533Z,8.50
2019-05-10T23:28:33.847Z,7.97
2019-05-10T23:31:02.059Z,9.05
2019-05-10T23:33:30.294Z,8.63
2019-05-10T23:35:58.522Z,8.08
2019-05-10T23:38:26.796Z,8.58
2019-05-10T23:40:55.033Z,8.18
2019-05-10T23:43:23.254Z,8.90
2019-05-10T23:45:51.475Z,9.23
2019-05-10T23:48:19.695Z,8.68
2019-05-10T23:50:47.911Z,8.65
2019-05-10T23:53:16.144Z,7.78
2019-05-10T23:55:44.356Z,9.48
2019-05-10T23:58:12.609Z,9.80
